Time;durP1;ratioP1;P1;durP2;ratioP2;P2;SDS_P1;SDS_P2;PMS_P1;PMS_P2;Temp;Humidity;BMP_temperature;BMP_pressure;BME280_temperature;BME280_humidity;BME280_pressure;Samples;Min_cycle;Max_cycle;Signal;HPM_P1;HPM_P2
2023/04/06 00:00:38;;;;;;;14.05;7.95;;;;;;;2.25;100.00;101711.59;5053131;28;20079;-60
2023/04/06 00:03:06;;;;;;;14.27;7.28;;;;;;;2.29;100.00;101710.66;5052705;28;20091;-60
2023/04/06 00:05:37;;;;;;;14.50;8.15;;;;;;;2.32;100.00;101708.00;5051780;28;20064;-59
2023/04/06 00:08:07;;;;;;;12.93;7.18;;;;;;;2.35;100.00;101704.50;5053779;28;20098;-59
2023/04/06 00:10:35;;;;;;;13.70;7.80;;;;;;;2.23;100.00;101691.72;5052716;28;20060;-59
2023/04/06 00:13:07;;;;;;;13.23;7.75;;;;;;;2.20;100.00;101693.47;5052576;28;20053;-59
2023/04/06 00:15:35;;;;;;;14.77;7.90;;;;;;;2.14;100.00;101696.19;5054789;28;20068;-58
2023/04/06 00:18:04;;;;;;;14.52;8.10;;;;;;;2.23;100.00;101694.31;5053740;28;20099;-58
2023/04/06 00:20:32;;;;;;;11.52;7.20;;;;;;;2.15;100.00;101691.84;5052372;28;20135;-59
2023/04/06 00:23:01;;;;;;;13.38;7.57;;;;;;;2.12;100.00;101687.56;5052391;28;20132;-60
2023/04/06 00:25:30;;;;;;;12.45;6.90;;;;;;;2.06;100.00;101690.25;5051755;28;20118;-59
2023/04/06 00:27:58;;;;;;;13.73;7.88;;;;;;;2.02;100.00;101683.41;5051946;28;20051;-59
2023/04/06 00:30:27;;;;;;;14.27;8.45;;;;;;;2.09;100.00;101682.41;5052019;28;20515;-60
2023/04/06 00:32:55;;;;;;;12.20;6.75;;;;;;;2.05;100.00;101683.34;5053183;28;20447;-59
2023/04/06 00:35:23;;;;;;;13.25;7.65;;;;;;;1.92;100.00;101679.22;5054033;28;20044;-60
2023/04/06 00:37:51;;;;;;;14.57;7.47;;;;;;;1.93;100.00;101673.16;5051941;28;20037;-59
2023/04/06 00:40:20;;;;;;;16.13;8.00;;;;;;;1.93;100.00;101674.00;5051563;28;20041;-59
2023/04/06 00:42:50;;;;;;;16.02;7.55;;;;;;;1.82;100.00;101665.56;5051456;28;20084;-58
2023/04/06 00:45:18;;;;;;;15.65;7.40;;;;;;;1.90;100.00;101666.28;5052600;28;20094;-60
2023/04/06 00:47:46;;;;;;;16.60;7.70;;;;;;;1.80;100.00;101662.09;5053303;28;20106;-59
2023/04/06 00:50:15;;;;;;;13.13;8.20;;;;;;;1.81;100.00;101666.44;5052166;28;20059;-58
2023/04/06 00:52:43;;;;;;;14.80;7.95;;;;;;;1.86;100.00;101662.88;5050335;28;20049;-60
2023/04/06 00:55:11;;;;;;;16.17;8.10;;;;;;;1.85;100.00;101666.38;5052009;28;20045;-59
2023/04/06 00:57:40;;;;;;;15.55;8.20;;;;;;;1.78;100.00;101658.69;5053951;28;20083;-59
2023/04/06 01:00:13;;;;;;;15.55;8.00;;;;;;;1.75;100.00;101659.59;5054034;28;20407;-59
2023/04/06 01:02:41;;;;;;;14.98;7.93;;;;;;;1.60;100.00;101657.25;5053922;28;20055;-58
2023/04/06 01:05:10;;;;;;;14.60;8.38;;;;;;;1.57;100.00;101650.38;5053855;28;20109;-59
2023/04/06 01:07:38;;;;;;;14.35;7.95;;;;;;;1.58;100.00;101651.22;5053168;28;20399;-58
2023/04/06 01:10:07;;;;;;;12.30;7.60;;;;;;;1.61;100.00;101646.84;5049492;28;20052;-59
2023/04/06 01:12:36;;;;;;;15.27;7.85;;;;;;;1.58;100.00;101639.13;5051357;28;20056;-59
2023/04/06 01:15:05;;;;;;;14.20;8.15;;;;;;;1.48;100.00;101638.38;5050655;28;20106;-59
2023/04/06 01:17:35;;;;;;;14.07;7.78;;;;;;;1.52;100.00;101637.44;5051007;28;20116;-59
2023/04/06 01:20:06;;;;;;;;;;;;;;;1.56;100.00;101634.84;5049836;28;20048;-60
2023/04/06 01:22:36;;;;;;;14.98;7.72;;;;;;;1.56;100.00;101632.25;5051439;28;19927;-60
2023/04/06 01:25:04;;;;;;;15.38;8.27;;;;;;;1.50;100.00;101627.97;5050598;28;20075;-59
2023/04/06 01:27:33;;;;;;;13.65;8.18;;;;;;;1.45;100.00;101617.69;5050738;28;20049;-59
2023/04/06 01:30:01;;;;;;;12.27;7.30;;;;;;;1.39;100.00;101625.56;5050857;28;20053;-59
2023/04/06 01:32:29;;;;;;;15.73;8.00;;;;;;;1.41;100.00;101622.94;5051408;28;20049;-60
2023/04/06 01:34:57;;;;;;;13.05;7.50;;;;;;;1.33;100.00;101621.31;5053267;28;20041;-60
2023/04/06 01:37:25;;;;;;;14.60;8.40;;;;;;;1.39;100.00;101620.38;5053127;28;20103;-60
2023/04/06 01:39:55;;;;;;;14.82;7.90;;;;;;;1.33;100.00;101610.94;5053244;28;20377;-59
2023/04/06 01:42:26;;;;;;;14.90;7.93;;;;;;;1.30;100.00;101620.50;5053165;28;20369;-60
2023/04/06 01:44:54;;;;;;;14.38;8.38;;;;;;;1.29;100.00;101623.97;5052478;28;20111;-60
2023/04/06 01:47:23;;;;;;;13.65;7.70;;;;;;;1.38;100.00;101613.47;5050636;28;20385;-60
2023/04/06 01:49:51;;;;;;;14.15;7.63;;;;;;;1.26;100.00;101608.47;5051107;28;20083;-60
2023/04/06 01:52:19;;;;;;;14.63;8.38;;;;;;;1.33;100.00;101604.91;5052894;28;20528;-60
2023/04/06 01:54:47;;;;;;;13.00;7.95;;;;;;;1.37;100.00;101603.13;5050179;28;20045;-60
2023/04/06 01:57:19;;;;;;;15.50;7.75;;;;;;;1.26;100.00;101609.31;5048995;28;20048;-60
2023/04/06 01:59:48;;;;;;;13.98;7.80;;;;;;;1.32;100.00;101609.25;5049966;28;20907;-60
2023/04/06 02:02:16;;;;;;;15.88;8.45;;;;;;;1.17;100.00;101605.13;5050520;28;20102;-60
2023/04/06 02:04:44;;;;;;;14.35;7.68;;;;;;;1.12;100.00;101600.91;5051428;28;20048;-60
2023/04/06 02:07:12;;;;;;;15.23;7.75;;;;;;;1.17;100.00;101597.38;5050812;28;20499;-59
2023/04/06 02:09:40;;;;;;;16.45;7.63;;;;;;;1.10;100.00;101589.69;5050233;28;20561;-60
2023/04/06 02:12:08;;;;;;;15.80;7.78;;;;;;;1.20;100.00;101591.28;5050835;28;20053;-58
2023/04/06 02:14:38;;;;;;;16.23;7.93;;;;;;;1.15;100.00;101591.31;5050166;28;20493;-59
2023/04/06 02:17:06;;;;;;;15.95;8.70;;;;;;;1.08;100.00;101592.31;5051450;28;20055;-59
2023/04/06 02:19:34;;;;;;;15.15;8.35;;;;;;;0.98;100.00;101590.69;5052673;28;20124;-59
2023/04/06 02:22:02;;;;;;;14.93;8.18;;;;;;;1.02;100.00;101584.59;5052551;28;20072;-59
2023/04/06 02:24:30;;;;;;;14.35;7.70;;;;;;;1.06;100.00;101580.25;5052034;28;20049;-60
2023/04/06 02:26:59;;;;;;;14.82;8.25;;;;;;;1.01;100.00;101582.91;5049547;28;20155;-59
2023/04/06 02:29:28;;;;;;;13.43;7.97;;;;;;;0.98;100.00;101577.75;5050765;28;20090;-59
2023/04/06 02:31:57;;;;;;;16.17;8.18;;;;;;;0.91;100.00;101573.53;5052534;28;20052;-59
2023/04/06 02:34:25;;;;;;;13.65;8.13;;;;;;;0.88;100.00;101576.16;5052550;28;20127;-59
2023/04/06 02:36:56;;;;;;;15.80;8.15;;;;;;;0.88;100.00;101569.25;5052131;28;20041;-59
2023/04/06 02:39:24;;;;;;;13.25;8.13;;;;;;;0.79;100.00;101569.34;5048111;28;20055;-60
2023/04/06 02:41:52;;;;;;;13.57;7.78;;;;;;;0.87;100.00;101572.69;5050065;28;20044;-59
2023/04/06 02:44:20;;;;;;;15.73;9.05;;;;;;;0.87;100.00;101569.28;5052659;28;20106;-59
2023/04/06 02:46:49;;;;;;;16.67;8.05;;;;;;;0.86;100.00;101572.72;5052330;28;20075;-59
2023/04/06 02:49:18;;;;;;;16.38;9.02;;;;;;;0.98;100.00;101564.78;5052467;28;20488;-60
2023/04/06 02:51:46;;;;;;;16.15;8.60;;;;;;;0.85;100.00;101564.13;5052390;28;20049;-60
2023/04/06 02:54:14;;;;;;;16.92;9.20;;;;;;;0.94;100.00;101565.72;5050796;28;20047;-59
2023/04/06 02:56:45;;;;;;;15.07;8.57;;;;;;;0.92;100.00;101562.31;5052064;28;20445;-59
2023/04/06 02:59:13;;;;;;;16.85;8.75;;;;;;;0.94;100.00;101560.53;5052381;28;20061;-59
2023/04/06 03:01:42;;;;;;;14.73;8.45;;;;;;;0.91;100.00;101561.41;5049819;28;20056;-59
2023/04/06 03:04:10;;;;;;;17.45;9.23;;;;;;;0.88;100.00;101555.44;5050059;28;20392;-60
2023/04/06 03:06:40;;;;;;;15.98;9.60;;;;;;;0.84;100.00;101549.44;5052170;28;20051;-59
2023/04/06 03:09:08;;;;;;;16.02;9.18;;;;;;;1.00;100.00;101548.34;5051970;28;20055;-60
2023/04/06 03:11:37;;;;;;;15.05;9.52;;;;;;;0.95;100.00;101547.56;5052875;28;20040;-59
2023/04/06 03:14:07;;;;;;;16.33;9.65;;;;;;;0.88;100.00;101548.53;5053015;28;20056;-60
2023/04/06 03:16:38;;;;;;;15.93;9.05;;;;;;;0.87;100.00;101554.56;5053271;28;20044;-59
2023/04/06 03:19:06;;;;;;;16.77;8.82;;;;;;;0.91;100.00;101548.47;5052814;28;20059;-60
2023/04/06 03:21:35;;;;;;;16.48;9.25;;;;;;;0.92;100.00;101544.16;5054508;28;20040;-60
2023/04/06 03:24:08;;;;;;;14.38;9.32;;;;;;;0.79;100.00;101540.88;5055654;28;20045;-59
2023/04/06 03:26:37;;;;;;;18.00;9.27;;;;;;;0.74;100.00;101543.53;5055900;28;20045;-59
2023/04/06 03:29:05;;;;;;;18.50;9.18;;;;;;;0.75;100.00;101542.66;5055383;28;20488;-59
2023/04/06 03:31:33;;;;;;;15.55;9.20;;;;;;;0.72;100.00;101540.09;5055393;28;20045;-59
2023/04/06 03:34:01;;;;;;;16.35;9.05;;;;;;;0.79;100.00;101544.34;5055389;28;20048;-60
2023/04/06 03:36:30;;;;;;;17.90;9.55;;;;;;;0.84;100.00;101534.75;5054011;28;20049;-59
2023/04/06 03:38:58;;;;;;;16.35;9.65;;;;;;;0.89;100.00;101533.84;5052782;28;20459;-59
2023/04/06 03:41:31;;;;;;;18.23;9.25;;;;;;;0.88;100.00;101535.56;5052369;28;20064;-58
2023/04/06 03:43:59;;;;;;;17.35;9.45;;;;;;;0.83;100.00;101535.66;5052684;28;20045;-59
2023/04/06 03:46:27;;;;;;;15.98;9.30;;;;;;;0.86;100.00;101533.88;5052393;28;20821;-59
2023/04/06 03:48:55;;;;;;;18.55;9.98;;;;;;;0.87;100.00;101535.59;5052281;28;20049;-59
2023/04/06 03:51:23;;;;;;;18.52;9.93;;;;;;;0.91;100.00;101529.50;5052620;28;20063;-60
2023/04/06 03:53:51;;;;;;;17.98;10.85;;;;;;;0.93;100.00;101530.34;5054330;28;20042;-60
2023/04/06 03:56:20;;;;;;;14.40;9.02;;;;;;;0.91;100.00;101524.31;5055199;28;20049;-60
2023/04/06 03:58:50;;;;;;;20.00;9.60;;;;;;;0.87;100.00;101527.81;5053162;28;20059;-60
2023/04/06 04:01:22;;;;;;;18.08;10.13;;;;;;;1.03;100.00;101523.28;5054854;28;20049;-60
2023/04/06 04:03:50;;;;;;;17.23;9.70;;;;;;;0.95;100.00;101529.41;5053190;28;20048;-60
2023/04/06 04:06:19;;;;;;;15.73;9.48;;;;;;;1.00;100.00;101529.38;5052643;28;20566;-60
2023/04/06 04:08:47;;;;;;;18.60;10.32;;;;;;;1.03;100.00;101524.13;5052287;28;20041;-61
2023/04/06 04:11:16;;;;;;;17.10;9.88;;;;;;;0.98;100.00;101528.53;5051583;28;20053;-60
2023/04/06 04:13:44;;;;;;;17.83;10.10;;;;;;;0.93;100.00;101527.75;5053603;28;20551;-60
2023/04/06 04:16:14;;;;;;;19.40;10.15;;;;;;;0.89;100.00;101528.69;5054894;28;20384;-61
2023/04/06 04:18:43;;;;;;;17.98;10.27;;;;;;;0.89;100.00;101526.94;5054776;28;20136;-60
2023/04/06 04:21:14;;;;;;;17.13;10.30;;;;;;;0.88;100.00;101530.38;5050765;28;20045;-60
2023/04/06 04:23:42;;;;;;;17.50;10.27;;;;;;;1.03;100.00;101528.47;5051486;28;20053;-60
2023/04/06 04:26:10;;;;;;;18.40;9.90;;;;;;;0.98;100.00;101529.41;5052351;28;20538;-60
2023/04/06 04:28:38;;;;;;;19.25;10.48;;;;;;;0.95;100.00;101531.16;5054505;28;20098;-60
2023/04/06 04:31:06;;;;;;;18.52;9.90;;;;;;;0.96;100.00;101531.13;5052881;28;20055;-59
2023/04/06 04:33:36;;;;;;;18.70;10.32;;;;;;;0.99;100.00;101538.84;5054469;28;20110;-59
2023/04/06 04:36:05;;;;;;;16.48;9.98;;;;;;;0.96;100.00;101535.47;5054185;28;20048;-59
2023/04/06 04:38:33;;;;;;;18.35;10.95;;;;;;;0.95;100.00;101533.75;5054111;28;20044;-60
2023/04/06 04:41:01;;;;;;;21.20;10.65;;;;;;;0.98;100.00;101528.53;5050677;28;20049;-59
2023/04/06 04:43:29;;;;;;;15.73;9.85;;;;;;;0.97;100.00;101535.44;5051468;28;20049;-58
2023/04/06 04:46:00;;;;;;;18.95;10.40;;;;;;;0.98;100.00;101529.41;5050882;28;20063;-60
2023/04/06 04:48:28;;;;;;;18.77;10.13;;;;;;;1.07;100.00;101536.16;5050896;28;20045;-60
2023/04/06 04:50:57;;;;;;;18.17;10.57;;;;;;;1.08;100.00;101522.34;5051836;28;20098;-60
2023/04/06 04:53:26;;;;;;;16.35;9.40;;;;;;;1.13;100.00;101530.91;5053231;28;20459;-60
2023/04/06 04:55:54;;;;;;;18.65;10.00;;;;;;;1.13;100.00;101528.31;5049709;28;20520;-60
2023/04/06 04:58:22;;;;;;;15.60;9.73;;;;;;;1.25;100.00;101526.41;5053180;28;20106;-59
2023/04/06 05:00:50;;;;;;;17.45;9.90;;;;;;;1.23;100.00;101520.38;5053359;28;20069;-60
2023/04/06 05:03:22;;;;;;;15.07;9.48;;;;;;;1.18;100.00;101523.91;5050117;28;20053;-59
2023/04/06 05:05:51;;;;;;;16.30;9.77;;;;;;;1.24;100.00;101517.78;5051310;28;20044;-58
2023/04/06 05:08:23;;;;;;;15.13;9.27;;;;;;;1.20;100.00;101518.72;5051000;28;20041;-60
2023/04/06 05:10:51;;;;;;;19.17;10.98;;;;;;;1.18;100.00;101518.72;5050869;28;20073;-60
2023/04/06 05:13:19;;;;;;;16.80;10.15;;;;;;;1.21;100.00;101519.56;5051206;28;20045;-60
2023/04/06 05:15:48;;;;;;;18.33;10.95;;;;;;;1.20;100.00;101517.84;5050555;28;20128;-59
2023/04/06 05:18:16;;;;;;;17.27;10.77;;;;;;;1.22;100.00;101524.72;5050706;28;20045;-59
2023/04/06 05:20:45;;;;;;;19.73;9.85;;;;;;;1.28;100.00;101523.75;5050692;28;20514;-59
2023/04/06 05:23:13;;;;;;;17.13;10.40;;;;;;;1.34;100.00;101514.16;5051639;28;20362;-60
2023/04/06 05:25:42;;;;;;;17.15;10.25;;;;;;;1.32;100.00;101523.72;5053409;28;20037;-59
2023/04/06 05:28:13;;;;;;;19.00;10.00;;;;;;;1.33;100.00;101519.38;5052841;28;20068;-59
2023/04/06 05:30:45;;;;;;;20.92;11.52;;;;;;;1.34;100.00;101513.31;5050930;28;20044;-59
2023/04/06 05:33:14;;;;;;;18.02;9.45;;;;;;;1.36;100.00;101511.53;5051818;28;20040;-59
2023/04/06 05:35:42;;;;;;;20.73;10.65;;;;;;;1.43;100.00;101515.78;5053034;28;20045;-59
2023/04/06 05:38:10;;;;;;;18.67;9.85;;;;;;;1.43;100.00;101513.19;5053054;28;20084;-59
2023/04/06 05:40:40;;;;;;;19.48;10.27;;;;;;;1.50;100.00;101514.78;5053254;28;20051;-59
2023/04/06 05:43:10;;;;;;;19.27;10.30;;;;;;;1.55;100.00;101498.28;5053143;28;20049;-59
2023/04/06 05:45:38;;;;;;;17.70;11.13;;;;;;;1.58;100.00;101506.88;5051627;28;20080;-59
2023/04/06 05:48:07;;;;;;;17.70;10.43;;;;;;;1.61;100.00;101501.63;5050832;28;20146;-59
2023/04/06 05:50:35;;;;;;;18.00;10.55;;;;;;;1.66;100.00;101504.13;5050800;28;20053;-59
2023/04/06 05:53:03;;;;;;;20.75;10.90;;;;;;;1.72;100.00;101498.84;5053026;28;20047;-59
2023/04/06 05:55:31;;;;;;;18.25;10.40;;;;;;;1.74;100.00;101504.84;5050292;28;20515;-59
2023/04/06 05:57:59;;;;;;;22.50;10.73;;;;;;;1.75;100.00;101501.38;5051386;28;20083;-59
2023/04/06 06:00:32;;;;;;;18.42;10.82;;;;;;;1.79;100.00;101500.44;5051085;28;20049;-59
2023/04/06 06:03:03;;;;;;;18.38;10.88;;;;;;;1.81;100.00;101500.41;5049897;28;20080;-59
2023/04/06 06:05:32;;;;;;;18.70;10.45;;;;;;;1.89;100.00;101492.50;5051872;28;20049;-59
2023/04/06 06:08:03;;;;;;;17.98;10.40;;;;;;;1.90;100.00;101497.66;5050110;28;20448;-59
2023/04/06 06:10:31;;;;;;;17.80;11.23;;;;;;;1.95;100.00;101497.56;5049709;28;20095;-60
2023/04/06 06:12:59;;;;;;;20.45;11.40;;;;;;;2.01;100.00;101505.25;5051709;28;20068;-59
2023/04/06 06:15:28;;;;;;;16.48;10.65;;;;;;;2.07;100.00;101499.91;5052628;28;20431;-59
2023/04/06 06:17:57;;;;;;;19.55;11.23;;;;;;;2.13;100.00;101499.81;5049819;28;20064;-59
2023/04/06 06:20:26;;;;;;;19.48;10.60;;;;;;;2.22;100.00;101503.13;5050915;28;20534;-59
2023/04/06 06:22:54;;;;;;;22.60;11.40;;;;;;;2.29;100.00;101500.38;5052659;28;20496;-59
2023/04/06 06:25:22;;;;;;;19.27;11.52;;;;;;;2.39;100.00;101501.03;5052754;28;20049;-59
2023/04/06 06:27:50;;;;;;;18.58;11.02;;;;;;;2.45;100.00;101495.69;5048859;28;20107;-58
2023/04/06 06:30:19;;;;;;;20.00;10.70;;;;;;;2.50;100.00;101493.88;5050094;28;20725;-59
2023/04/06 06:32:51;;;;;;;22.88;11.23;;;;;;;2.59;100.00;101497.16;5052547;28;20041;-60
2023/04/06 06:35:20;;;;;;;19.58;11.63;;;;;;;2.69;100.00;101502.13;5052502;28;20037;-59
2023/04/06 06:37:49;;;;;;;20.83;11.82;;;;;;;2.76;100.00;101508.03;5052383;28;20049;-59
2023/04/06 06:40:17;;;;;;;19.20;11.88;;;;;;;2.83;100.00;101509.59;5052410;28;20103;-59
2023/04/06 06:42:46;;;;;;;20.60;11.50;;;;;;;2.96;100.00;101506.72;5049668;28;20102;-59
2023/04/06 06:45:14;;;;;;;20.63;11.50;;;;;;;3.08;100.00;101506.47;5051434;28;20037;-60
2023/04/06 06:47:42;;;;;;;20.10;12.40;;;;;;;3.19;100.00;101507.06;5056422;28;20162;-60
2023/04/06 06:50:11;;;;;;;19.90;11.57;;;;;;;3.33;100.00;101496.34;5056309;28;20045;-59
2023/04/06 06:52:41;;;;;;;21.67;12.10;;;;;;;3.64;100.00;101495.56;5054280;28;20454;-59
2023/04/06 06:55:10;;;;;;;23.08;12.48;;;;;;;3.92;100.00;101491.41;5052491;28;20127;-59
2023/04/06 06:57:42;;;;;;;20.25;12.15;;;;;;;4.08;100.00;101492.69;5055566;28;20464;-60
2023/04/06 07:00:12;;;;;;;18.90;11.70;;;;;;;4.21;100.00;101491.44;5053116;28;20057;-59
2023/04/06 07:02:41;;;;;;;19.52;11.90;;;;;;;4.48;100.00;101488.94;5053994;28;20083;-59
2023/04/06 07:05:09;;;;;;;20.88;12.05;;;;;;;4.68;100.00;101492.72;5055225;28;20446;-60
2023/04/06 07:07:55;;;;;;;20.08;11.57;;;;;;;4.93;100.00;101489.34;5055656;28;20095;-59
2023/04/06 07:10:24;;;;;;;23.40;11.80;;;;;;;5.03;100.00;101481.19;5054648;28;20696;-60
2023/04/06 07:12:52;;;;;;;20.85;11.50;;;;;;;5.15;100.00;101476.47;5053518;28;20120;-60
2023/04/06 07:15:21;;;;;;;22.00;11.70;;;;;;;5.33;100.00;101477.63;5070291;28;20049;-60
2023/04/06 07:17:49;;;;;;;19.25;11.15;;;;;;;5.46;100.00;101470.25;5053686;28;20045;-60
2023/04/06 07:20:17;;;;;;;22.70;11.48;;;;;;;5.43;100.00;101473.81;5053651;28;20041;-60
2023/04/06 07:22:46;;;;;;;19.30;11.80;;;;;;;5.68;100.00;101470.38;5053296;28;20048;-60
2023/04/06 07:25:15;;;;;;;19.30;11.65;;;;;;;5.82;99.80;101460.31;5054358;28;20049;-60
2023/04/06 07:27:44;;;;;;;21.13;11.95;;;;;;;5.85;100.00;101462.81;5055863;28;20103;-60
2023/04/06 07:30:12;;;;;;;22.05;12.30;;;;;;;5.92;98.42;101466.91;5055451;28;20049;-60
2023/04/06 07:32:40;;;;;;;20.20;12.05;;;;;;;6.10;97.28;101461.94;5053239;28;20049;-60
2023/04/06 07:35:09;;;;;;;21.08;12.45;;;;;;;6.16;97.13;101464.34;5052604;28;20045;-60
2023/04/06 07:37:37;;;;;;;22.13;11.65;;;;;;;6.27;97.23;101466.53;5053548;28;20476;-60
2023/04/06 07:40:06;;;;;;;21.83;13.10;;;;;;;6.42;95.45;101467.72;5053772;28;20092;-60
2023/04/06 07:42:36;;;;;;;18.30;11.40;;;;;;;6.44;92.35;101465.94;5052495;28;20049;-60
2023/04/06 07:45:05;;;;;;;21.52;11.40;;;;;;;6.61;93.71;101470.50;5054526;28;20053;-60
2023/04/06 07:47:33;;;;;;;18.42;11.10;;;;;;;6.66;92.03;101462.50;5055139;28;20469;-60
2023/04/06 07:50:01;;;;;;;23.35;11.98;;;;;;;6.79;88.52;101466.34;5055299;28;20124;-60
2023/04/06 07:52:29;;;;;;;20.83;11.15;;;;;;;6.83;90.75;101462.69;5055523;28;20049;-60
2023/04/06 07:54:58;;;;;;;23.17;11.68;;;;;;;6.94;91.49;101459.66;5055044;28;20392;-60
2023/04/06 07:57:26;;;;;;;20.17;12.25;;;;;;;7.02;91.40;101462.81;5054906;28;20734;-60
2023/04/06 07:59:56;;;;;;;22.13;12.63;;;;;;;7.05;92.26;101459.22;5054718;28;20492;-60
2023/04/06 08:02:24;;;;;;;21.30;12.57;;;;;;;7.16;92.64;101464.84;5054913;28;20056;-62
2023/04/06 08:04:52;;;;;;;22.75;12.95;;;;;;;7.18;92.32;101465.63;5053361;28;20099;-60
2023/04/06 08:07:21;;;;;;;21.17;12.15;;;;;;;7.15;90.03;101459.69;5053086;28;20049;-61
2023/04/06 08:09:49;;;;;;;19.88;11.77;;;;;;;7.21;90.03;101462.91;5052214;28;20045;-60
2023/04/06 08:12:17;;;;;;;22.30;11.40;;;;;;;7.32;91.42;101462.47;5051699;28;20562;-61
2023/04/06 08:14:45;;;;;;;21.40;12.15;;;;;;;7.37;92.09;101455.25;5051495;28;20045;-61
2023/04/06 08:17:15;;;;;;;21.48;12.40;;;;;;;7.52;90.13;101459.00;5051069;28;20059;-61
2023/04/06 08:19:44;;;;;;;21.30;11.73;;;;;;;7.51;91.06;101457.31;5052989;28;20531;-61
2023/04/06 08:22:13;;;;;;;20.75;10.93;;;;;;;7.66;89.61;101463.63;5053007;28;20049;-60
2023/04/06 08:24:41;;;;;;;21.42;12.05;;;;;;;7.70;87.62;101451.28;5050969;28;20139;-60
2023/04/06 08:27:09;;;;;;;21.08;11.60;;;;;;;7.75;87.16;101450.16;5049986;28;20450;-61
2023/04/06 08:29:37;;;;;;;20.35;12.30;;;;;;;7.72;89.36;101450.28;5051739;28;20052;-61
2023/04/06 08:32:06;;;;;;;18.95;11.93;;;;;;;7.86;86.72;101451.47;5051929;28;20055;-61
2023/04/06 08:34:36;;;;;;;20.33;12.68;;;;;;;7.87;87.69;101446.16;5050879;28;20090;-61
2023/04/06 08:37:05;;;;;;;19.48;11.65;;;;;;;7.92;86.66;101448.56;5051473;28;20078;-61
2023/04/06 08:39:33;;;;;;;19.63;11.10;;;;;;;8.08;86.68;101439.09;5054029;28;20072;-61
2023/04/06 08:42:02;;;;;;;23.75;12.77;;;;;;;8.16;85.29;101437.91;5054232;28;20136;-61
2023/04/06 08:44:33;;;;;;;22.85;12.18;;;;;;;8.14;83.75;101437.97;5054211;28;20041;-61
2023/04/06 08:47:01;;;;;;;21.70;12.90;;;;;;;8.15;86.28;101441.44;5054025;28;20056;-61
2023/04/06 08:49:30;;;;;;;20.15;11.02;;;;;;;8.41;80.72;101437.63;5052763;28;20045;-61
2023/04/06 08:52:01;;;;;;;19.55;11.52;;;;;;;8.44;80.61;101433.09;5053911;28;20535;-61
2023/04/06 08:54:29;;;;;;;20.33;11.68;;;;;;;8.54;79.30;101428.28;5054070;28;20052;-61
2023/04/06 08:56:57;;;;;;;21.77;11.35;;;;;;;8.52;79.47;101434.53;5053868;28;20060;-61
2023/04/06 08:59:26;;;;;;;19.55;11.38;;;;;;;8.72;81.34;101441.44;5053343;28;20132;-61
2023/04/06 09:01:56;;;;;;;22.73;11.65;;;;;;;8.82;78.58;101441.84;5053640;28;20061;-61
2023/04/06 09:04:25;;;;;;;18.73;11.23;;;;;;;8.80;77.79;101445.41;5053661;28;20041;-61
2023/04/06 09:06:57;;;;;;;20.02;11.43;;;;;;;8.93;78.06;101439.56;5053573;28;20048;-61
2023/04/06 09:09:26;;;;;;;21.58;11.25;;;;;;;9.02;79.32;101435.66;5052496;28;20048;-61
2023/04/06 09:11:55;;;;;;;20.00;12.07;;;;;;;9.07;77.50;101436.28;5050062;28;20052;-62
2023/04/06 09:14:36;;;;;;;18.67;11.48;;;;;;;9.02;76.77;101441.72;5052340;28;20037;-61
2023/04/06 09:17:05;;;;;;;20.60;12.13;;;;;;;9.11;77.44;101443.06;5053473;28;20479;-61
2023/04/06 09:19:33;;;;;;;19.90;12.35;;;;;;;9.23;76.80;101439.84;5050473;28;20072;-61
2023/04/06 09:22:06;;;;;;;19.00;11.43;;;;;;;9.30;76.54;101438.59;5051227;28;20044;-61
2023/04/06 09:24:46;;;;;;;19.77;12.02;;;;;;;9.50;77.31;101439.34;5051606;28;20049;-61
2023/04/06 09:27:15;;;;;;;21.50;12.75;;;;;;;9.55;75.82;101439.13;5048943;28;20072;-61
2023/04/06 09:29:45;;;;;;;21.90;12.60;;;;;;;9.44;74.96;101439.69;5049397;28;20071;-61
2023/04/06 09:32:16;;;;;;;21.52;12.30;;;;;;;9.62;75.06;101441.34;5050676;28;20453;-61
2023/04/06 09:34:48;;;;;;;20.05;12.15;;;;;;;9.79;76.38;101434.38;5050449;28;20408;-61
2023/04/06 09:37:19;;;;;;;20.83;12.75;;;;;;;9.82;76.19;101435.06;5050076;28;20045;-62
2023/04/06 09:39:51;;;;;;;21.55;12.07;;;;;;;9.91;75.88;101438.13;5049740;28;20065;-60
2023/04/06 09:42:25;;;;;;;22.20;13.03;;;;;;;10.10;76.76;101432.75;5052950;28;20053;-61
2023/04/06 09:44:54;;;;;;;22.33;13.35;;;;;;;10.09;74.84;101431.03;5051288;28;20445;-61
2023/04/06 09:47:23;;;;;;;21.73;12.70;;;;;;;10.20;75.45;101428.69;5048492;28;20037;-61
2023/04/06 09:49:58;;;;;;;23.38;12.57;;;;;;;10.26;76.04;101427.50;5049630;28;20044;-61
2023/04/06 09:52:28;;;;;;;23.77;13.82;;;;;;;10.21;75.87;101429.53;5052343;28;20098;-61
2023/04/06 09:55:02;;;;;;;22.95;13.45;;;;;;;10.24;75.02;101422.34;5048341;28;20542;-61
2023/04/06 09:57:36;;;;;;;21.48;12.90;;;;;;;10.50;76.43;101430.63;5049100;28;20049;-62
2023/04/06 10:00:09;;;;;;;24.77;13.52;;;;;;;10.66;75.39;101433.22;5048931;28;20092;-62
2023/04/06 10:02:46;;;;;;;23.67;13.65;;;;;;;10.77;75.84;101427.34;5049309;28;20397;-62
2023/04/06 10:05:20;;;;;;;23.05;13.57;;;;;;;10.89;74.14;101423.19;5048571;28;20369;-62
2023/04/06 10:07:51;;;;;;;22.05;13.35;;;;;;;10.74;74.60;101427.53;5047358;28;20114;-61
2023/04/06 10:10:31;;;;;;;24.60;13.32;;;;;;;10.84;75.41;101426.09;5047510;28;20079;-61
2023/04/06 10:12:59;;;;;;;21.15;13.55;;;;;;;11.11;75.55;101425.41;5047988;28;20052;-62
2023/04/06 10:15:29;;;;;;;24.05;13.95;;;;;;;11.27;72.75;101428.00;5051514;28;20088;-61
2023/04/06 10:17:58;;;;;;;24.25;13.40;;;;;;;11.21;71.61;101426.59;5050662;28;20094;-62
2023/04/06 10:20:32;;;;;;;22.67;14.13;;;;;;;11.21;72.74;101430.97;5047170;28;20130;-62
2023/04/06 10:23:08;;;;;;;23.00;13.13;;;;;;;11.37;71.56;101428.31;5048345;28;20523;-62
2023/04/06 10:25:38;;;;;;;23.95;14.73;;;;;;;11.40;70.24;101426.34;5047830;28;20807;-62
2023/04/06 10:28:07;;;;;;;22.77;14.18;;;;;;;11.38;73.06;101428.22;5051179;28;20049;-62
2023/04/06 10:30:42;;;;;;;26.42;14.85;;;;;;;11.43;73.00;101427.97;5051484;28;20141;-62
2023/04/06 10:33:17;;;;;;;24.77;12.50;;;;;;;11.49;68.66;101435.47;5051610;28;20053;-61
2023/04/06 10:35:45;;;;;;;19.55;11.73;;;;;;;11.53;68.04;101437.00;5051751;28;20128;-62
2023/04/06 10:38:14;;;;;;;20.83;12.82;;;;;;;11.29;67.50;101434.03;5051276;28;20103;-62
2023/04/06 10:40:44;;;;;;;21.05;11.80;;;;;;;11.27;69.37;101428.84;5051384;28;20048;-62
2023/04/06 10:43:14;;;;;;;21.30;12.38;;;;;;;11.37;69.14;101431.81;5051402;28;20103;-61
2023/04/06 10:45:42;;;;;;;22.50;13.70;;;;;;;11.39;70.54;101434.34;5051639;28;20558;-61
2023/04/06 10:48:15;;;;;;;19.52;11.88;;;;;;;11.36;70.67;101429.25;5049984;28;20064;-62
2023/04/06 10:50:45;;;;;;;18.90;11.30;;;;;;;11.19;70.53;101433.72;5051314;28;20048;-61
2023/04/06 10:53:22;;;;;;;21.10;12.65;;;;;;;11.13;71.87;101424.38;5051574;28;20072;-61
2023/04/06 10:55:53;;;;;;;17.77;11.15;;;;;;;11.26;72.94;101424.53;5051331;28;20122;-62
2023/04/06 10:58:25;;;;;;;18.77;12.38;;;;;;;11.43;73.38;101425.31;5050996;28;20044;-61
2023/04/06 11:00:53;;;;;;;19.50;11.40;;;;;;;11.26;72.92;101424.53;5008717;28;1209021;-61
2023/04/06 11:03:21;;;;;;;23.80;13.10;;;;;;;11.40;74.09;101425.47;5051727;28;20045;-61
2023/04/06 11:05:51;;;;;;;20.08;12.18;;;;;;;11.31;73.98;101430.34;5050923;28;20508;-61
2023/04/06 11:08:29;;;;;;;21.75;11.38;;;;;;;11.24;74.60;101430.81;5052164;28;20400;-61
2023/04/06 11:11:10;;;;;;;20.70;11.40;;;;;;;11.50;74.93;101430.13;5048850;28;20052;-61
2023/04/06 11:13:40;;;;;;;16.33;11.07;;;;;;;11.88;75.18;101422.63;5048522;28;20049;-61
2023/04/06 11:16:13;;;;;;;21.92;11.98;;;;;;;11.96;74.09;101421.25;5050919;28;20071;-62
2023/04/06 11:18:52;;;;;;;17.05;10.98;;;;;;;12.12;73.61;101428.19;5048461;28;20049;-61
2023/04/06 11:21:31;;;;;;;18.75;11.48;;;;;;;12.15;72.31;101425.38;5048023;28;20103;-62
2023/04/06 11:24:10;;;;;;;19.45;12.57;;;;;;;12.03;75.15;101429.63;5048004;28;20171;-62